Washington, DC (20013)

12:40 PM EST on December 26, 2014 (GMT -0500)
Logan Circle | Change Station
CLOSE
Current Station
Personal Weather Station
Location: Washington, DC
Elevation: 108 ft
Nearby Weather Stations

Elev 108 ft 38.91 °N, 77.03 °W | Updated 7 seconds ago

Partly Cloudy
Partly Cloudy
52.6 °F
Feels Like 52.6 °F
N
0.0
Wind Variable Wind from North
Gusts 0.0 mph

Today
High -- | Low -- °F
--% Chance of Precip.
Yesterday
High -- | Low -- °F
Precip. -- in
7:25 AM 4:52 PM
Waxing Crescent, 27% visible
Pressure 30.32 in
Visibility 10.0 miles
Clouds Scattered Clouds 25000 ft
Dew Point 27 °F
Humidity 37%
Rainfall 0.00 in
Snow Depth Not available.
UV 2 out of 12
Pollen .10 out of 12
Air Quality Not available.
Flu Activity Not available.
METAR KDCA 261652Z 17009KT 10SM SCT250 09/01 A3032 RMK AO2 SLP266 T00940011

More Conditions Fewer Conditions

Pressure 30.32 in
Visibility 10.0 miles
Clouds Scattered Clouds 25000 ft
Dew Point 27 °F
Humidity 37%
Rainfall 0.00 in
Snow Depth Not available.
UV 2 out of 12
Pollen .10 out of 12
Air Quality Not available.
Flu Activity Not available.
METAR KDCA 261652Z 17009KT 10SM SCT250 09/01 A3032 RMK AO2 SLP266 T00940011

More Conditions Fewer Conditions

10-Day Weather Forecast

Almanac

Astronomy

Dec. 26, 2014 Rise Set
Actual Time
Civil Twilight
Nautical Twilight
Astronomical Twilight
Moon
Length of Visible Light
Length of Day
Tomorrow will be .
, % of the Moon is Illuminated

Today's Extremes

State Highs State Lows

Community

WunderPhotos

Upload Photos

1,780,654 photos uploaded!

WunderBlogs® & News

Nearby

Air Quality

  Air Quality AQ Index Pollutant
Not available.

Snow Depth

Station Depth Elevation

Earthquake Activity

City Distance Mag. Time & Date
Minimum magnitude displayed is 2.5.

Coastal Water Temperatures

Place Temperature

Nearby Weather Stations